Time;durP1;ratioP1;P1;durP2;ratioP2;P2;SDS_P1;SDS_P2;PMS_P1;PMS_P2;Temp;Humidity;BMP_temperature;BMP_pressure;BME280_temperature;BME280_humidity;BME280_pressure;Samples;Min_cycle;Max_cycle;Signal;HPM_P1;HPM_P2
2023/02/16 00:01:08;;;;;;;32.47;17.35;;;;;;;-2.64;100.00;100102.16;5068827;28;20052;-78
2023/02/16 00:03:35;;;;;;;32.20;15.45;;;;;;;-2.65;100.00;100108.41;5053161;28;20076;-79
2023/02/16 00:06:01;;;;;;;37.95;17.00;;;;;;;-2.65;100.00;100120.84;5053741;28;20052;-79
2023/02/16 00:08:28;;;;;;;37.72;17.52;;;;;;;-2.74;100.00;100111.53;5053248;28;20484;-79
2023/02/16 00:13:46;;;;;;;33.97;15.68;;;;;;;-2.69;100.00;100138.78;5072748;28;20134;-79
2023/02/16 00:16:16;;;;;;;32.78;17.05;;;;;;;-2.85;100.00;100109.41;5073531;28;20052;-78
2023/02/16 00:18:42;;;;;;;;;;;;;;;-2.77;100.00;100133.84;5074310;28;20071;-79
2023/02/16 00:21:09;;;;;;;30.30;15.90;;;;;;;-3.02;100.00;100110.25;5073552;28;19926;-79
2023/02/16 00:23:36;;;;;;;35.55;16.40;;;;;;;-3.02;100.00;100110.25;5072733;28;20506;-79
2023/02/16 00:26:03;;;;;;;36.58;17.38;;;;;;;-3.09;100.00;100112.34;5071737;28;20054;-79
2023/02/16 00:28:32;;;;;;;31.45;16.90;;;;;;;-3.18;100.00;100083.53;5062332;28;20051;-78
2023/02/16 00:30:59;;;;;;;37.40;17.42;;;;;;;-2.95;100.00;100124.09;5067075;28;20048;-79
2023/02/16 00:33:27;;;;;;;38.05;17.20;;;;;;;-3.06;100.00;100106.84;5072006;28;20052;-79
2023/02/16 00:35:53;;;;;;;31.88;16.90;;;;;;;-2.88;100.00;100120.22;5058407;28;20048;-79
2023/02/16 00:38:20;;;;;;;35.25;16.52;;;;;;;-2.92;100.00;100126.59;5052858;28;20057;-78
2023/02/16 00:40:46;;;;;;;33.45;16.88;;;;;;;-2.88;100.00;100131.69;5067805;28;20048;-79
2023/02/16 00:43:24;;;;;;;35.13;16.67;;;;;;;-2.89;100.00;100118.47;5063474;28;20051;-79
2023/02/16 00:45:51;;;;;;;35.78;16.45;;;;;;;-2.93;100.00;100112.47;5061916;28;20507;-79
2023/02/16 00:48:17;;;;;;;31.88;15.13;;;;;;;-2.89;100.00;100113.16;5053057;28;20056;-79
2023/02/16 00:50:45;;;;;;;28.02;14.02;;;;;;;-2.98;100.00;100106.50;5053011;28;20049;-79
2023/02/16 00:53:13;;;;;;;26.65;13.93;;;;;;;-2.95;100.00;100109.03;5052451;28;20500;-79
2023/02/16 00:55:42;;;;;;;27.60;14.27;;;;;;;-2.95;100.00;100119.66;5067640;28;20048;-79
2023/02/16 00:58:14;;;;;;;27.13;13.10;;;;;;;-3.14;100.00;100113.53;5071666;28;20118;-79
2023/02/16 01:00:44;;;;;;;26.30;14.40;;;;;;;-3.25;100.00;100100.72;5068460;28;20044;-79
2023/02/16 01:03:16;;;;;;;29.55;13.93;;;;;;;-3.07;100.00;100128.22;5056965;28;20057;-79
2023/02/16 01:05:42;;;;;;;33.88;14.95;;;;;;;-3.15;100.00;100122.44;5052598;28;20048;-78
2023/02/16 01:11:08;;;;;;;;;;;;;;;-3.09;100.00;100130.09;5071225;28;20133;-79
2023/02/16 01:13:41;;;;;;;28.52;13.95;;;;;;;-3.26;100.00;100113.16;5063683;28;19920;-78
2023/02/16 01:16:17;;;;;;;28.02;13.90;;;;;;;-3.22;100.00;100105.91;5065780;28;20052;-79
2023/02/16 01:18:43;;;;;;;31.67;14.43;;;;;;;-3.22;100.00;100104.09;5067530;28;20063;-79
2023/02/16 01:21:10;;;;;;;28.92;13.57;;;;;;;-3.19;100.00;100113.75;5071272;28;20051;-79
2023/02/16 01:23:38;;;;;;;25.45;12.57;;;;;;;-3.23;100.00;100120.13;5070079;28;20044;-78
2023/02/16 01:26:06;;;;;;;28.75;13.20;;;;;;;-3.36;100.00;100103.91;5071612;28;20044;-79
2023/02/16 01:28:34;;;;;;;28.80;12.52;;;;;;;-3.34;100.00;100093.19;5071146;28;20048;-78
2023/02/16 01:31:01;;;;;;;25.50;13.80;;;;;;;-3.38;100.00;100096.00;5062897;28;20109;-79
2023/02/16 01:33:27;;;;;;;28.58;13.20;;;;;;;-3.29;100.00;100091.19;5068443;28;20050;-79
2023/02/16 01:35:56;;;;;;;29.48;13.98;;;;;;;-3.27;100.00;100095.47;5061581;28;20059;-79
2023/02/16 01:38:26;;;;;;;27.75;14.82;;;;;;;-3.33;100.00;100087.78;5065634;28;20063;-78
2023/02/16 01:40:59;;;;;;;;;;;;;;;-3.20;100.00;100107.53;5070077;28;20049;-78
2023/02/16 01:43:28;;;;;;;24.02;12.00;;;;;;;-3.38;100.00;100071.22;5070229;28;19924;-78
2023/02/16 01:46:02;;;;;;;27.02;11.45;;;;;;;-3.36;100.00;100063.16;5053430;28;20492;-78
2023/02/16 01:48:31;;;;;;;26.92;12.98;;;;;;;-3.35;100.00;100070.22;5070241;28;20159;-79
2023/02/16 01:51:05;;;;;;;22.58;12.52;;;;;;;-3.34;100.00;100087.88;5066184;28;20056;-78
2023/02/16 01:53:36;;;;;;;23.35;12.20;;;;;;;-3.31;100.00;100093.91;5071437;28;20127;-78
2023/02/16 01:56:11;;;;;;;27.73;12.63;;;;;;;-3.14;100.00;100109.06;5071484;28;20055;-78
2023/02/16 01:58:45;;;;;;;26.25;12.35;;;;;;;-3.31;100.00;100080.63;5072354;28;20128;-78
2023/02/16 02:01:36;;;;;;;29.33;13.27;;;;;;;-3.12;100.00;100103.66;5054901;28;20041;-78
2023/02/16 02:06:47;;;;;;;24.02;12.98;;;;;;;-3.47;100.00;100085.81;5063759;28;20119;-79
2023/02/16 02:09:20;;;;;;;27.00;11.93;;;;;;;-3.36;100.00;100079.09;5059339;28;20048;-78
2023/02/16 02:11:54;;;;;;;23.42;12.20;;;;;;;-3.41;100.00;100068.69;5052260;28;20059;-78
2023/02/16 02:14:26;;;;;;;25.52;12.13;;;;;;;-3.46;100.00;100082.22;5063736;28;20399;-79
2023/02/16 02:16:55;;;;;;;26.63;12.40;;;;;;;-3.63;100.00;100064.41;5071345;28;20052;-78
2023/02/16 02:19:22;;;;;;;26.83;12.60;;;;;;;-3.53;100.00;100104.69;5070855;28;20055;-78
2023/02/16 02:25:41;;;;;;;26.75;12.13;;;;;;;-3.72;100.00;100069.28;5053948;28;20103;-78
2023/02/16 02:28:14;;;;;;;;;;;;;;;-3.48;100.00;100093.84;5067107;28;20041;-78
2023/02/16 02:30:49;;;;;;;28.83;11.40;;;;;;;-3.62;100.00;100075.91;5061696;28;19921;-78
2023/02/16 02:33:38;;;;;;;26.73;12.10;;;;;;;-3.71;100.00;100066.56;5054934;28;20053;-78
2023/02/16 02:36:15;;;;;;;32.67;13.52;;;;;;;-3.62;100.00;100082.06;5071769;28;20401;-78
2023/02/16 02:38:55;;;;;;;34.77;13.20;;;;;;;-3.65;100.00;100066.28;5072442;28;20464;-78
2023/02/16 02:42:02;;;;;;;25.50;12.37;;;;;;;-3.71;100.00;100069.22;5066482;28;20056;-78
2023/02/16 02:44:21;;;;;;;25.40;13.07;;;;;;;-3.71;100.00;100074.53;5066629;28;20127;-78
2023/02/16 02:46:48;;;;;;;27.83;12.63;;;;;;;-3.73;100.00;100068.44;5062216;28;20049;-78
2023/02/16 02:49:15;;;;;;;21.05;11.15;;;;;;;-3.78;100.00;100060.69;5055353;28;20049;-78
2023/02/16 02:51:42;;;;;;;23.08;12.15;;;;;;;-3.79;100.00;100061.59;5075370;28;20051;-78
2023/02/16 03:02:37;;;;;;;25.73;11.87;;;;;;;-3.69;100.00;100053.19;5074305;28;20052;-78
2023/02/16 03:05:07;;;;;;;24.00;12.13;;;;;;;-3.84;100.00;100042.38;5072432;28;20044;-78
2023/02/16 03:07:48;;;;;;;30.73;13.07;;;;;;;-3.80;100.00;100056.38;5068075;28;20071;-78
2023/02/16 03:13:04;;;;;;;30.07;12.57;;;;;;;-3.65;100.00;100060.09;5073912;28;20097;-78
2023/02/16 03:15:33;;;;;;;24.40;12.80;;;;;;;-3.76;100.00;100039.34;5054745;28;20045;-78
2023/02/16 03:29:21;;;;;;;23.90;13.17;;;;;;;-3.76;100.00;100071.25;5074454;28;20095;-78
2023/02/16 03:31:51;;;;;;;28.07;12.77;;;;;;;-3.87;100.00;100071.72;5074874;28;20057;-78
2023/02/16 03:34:18;;;;;;;;;;;;;;;-3.85;100.00;100082.28;5070729;28;20124;-78
2023/02/16 03:36:48;;;;;;;30.53;13.47;;;;;;;-4.05;100.00;100048.66;5059530;28;19920;-78
2023/02/16 03:39:14;;;;;;;;;;;;;;;-3.93;100.00;100072.00;5071348;28;20060;-78
2023/02/16 03:41:43;;;;;;;22.90;11.30;;;;;;;-3.91;100.00;100067.50;5068986;28;19921;-78
2023/02/16 03:44:10;;;;;;;25.90;13.05;;;;;;;-4.08;100.00;100060.28;5053165;28;20053;-78
2023/02/16 03:46:36;;;;;;;28.53;12.97;;;;;;;-3.99;100.00;100070.50;5054111;28;20488;-78
2023/02/16 03:49:04;;;;;;;25.17;11.63;;;;;;;-3.95;100.00;100052.63;5054237;28;20060;-78
2023/02/16 03:51:31;;;;;;;22.30;11.40;;;;;;;-3.99;100.00;100051.03;5058886;28;20056;-78
2023/02/16 03:53:57;;;;;;;22.37;11.17;;;;;;;-4.12;100.00;100051.59;5068082;28;20071;-78
2023/02/16 03:56:24;;;;;;;25.37;11.60;;;;;;;-4.12;100.00;100046.28;5063360;28;20056;-78
2023/02/16 03:58:51;;;;;;;27.00;12.77;;;;;;;-4.09;100.00;100053.28;5071237;28;20053;-77
2023/02/16 04:01:17;;;;;;;24.15;11.13;;;;;;;-4.01;100.00;100063.53;5072153;28;20431;-78
2023/02/16 04:03:44;;;;;;;24.03;12.00;;;;;;;-3.88;100.00;100091.28;5053262;28;20416;-78
2023/02/16 04:06:12;;;;;;;27.08;12.00;;;;;;;-4.05;100.00;100062.81;5053951;28;20041;-78
2023/02/16 04:08:38;;;;;;;25.27;11.93;;;;;;;-3.97;100.00;100059.81;5067029;28;20053;-78
2023/02/16 04:12:34;;;;;;;28.57;11.77;;;;;;;-4.03;100.00;100052.97;5067362;28;20488;-78
2023/02/16 04:13:51;;;;;;;19.52;10.60;;;;;;;-3.94;100.00;100075.63;5072379;28;20045;-78
2023/02/16 04:16:18;;;;;;;23.37;11.07;;;;;;;-4.07;100.00;100062.00;5062769;28;20541;-78
2023/02/16 04:18:44;;;;;;;22.07;11.90;;;;;;;-4.14;100.00;100065.88;5053762;28;20048;-78
2023/02/16 04:21:12;;;;;;;24.88;12.38;;;;;;;-4.07;100.00;100064.66;5070019;28;20052;-78
2023/02/16 04:23:38;;;;;;;24.00;10.93;;;;;;;-4.07;100.00;100056.69;5068158;28;20100;-78
2023/02/16 04:26:05;;;;;;;21.63;10.47;;;;;;;-4.17;100.00;100071.31;5064324;28;20049;-78
2023/02/16 04:28:32;;;;;;;21.38;10.35;;;;;;;-4.20;100.00;100061.72;5065667;28;20047;-78
2023/02/16 04:30:58;;;;;;;24.80;12.37;;;;;;;-4.03;100.00;100087.50;5071448;28;20135;-78
2023/02/16 04:33:25;;;;;;;29.00;13.00;;;;;;;-4.04;100.00;100079.63;5071459;28;20044;-78
2023/02/16 04:35:51;;;;;;;21.23;10.87;;;;;;;-4.04;100.00;100095.56;5054044;28;20052;-78
2023/02/16 04:38:19;;;;;;;18.60;10.87;;;;;;;-4.23;100.00;100072.50;5070955;28;20044;-78
2023/02/16 04:40:46;;;;;;;26.77;12.07;;;;;;;-4.12;100.00;100093.25;5073303;28;20056;-78
2023/02/16 04:43:12;;;;;;;25.33;11.47;;;;;;;-4.09;100.00;100098.41;5060791;28;20045;-77
2023/02/16 04:45:39;;;;;;;22.77;11.53;;;;;;;-4.15;100.00;100070.34;5071014;28;20044;-78
2023/02/16 04:48:06;;;;;;;25.40;11.87;;;;;;;-4.07;100.00;100088.56;5072806;28;20071;-78
2023/02/16 04:50:32;;;;;;;23.17;11.03;;;;;;;-4.22;100.00;100068.88;5070178;28;20547;-78
2023/02/16 04:52:59;;;;;;;22.70;10.67;;;;;;;-4.32;100.00;100078.19;5070209;28;20071;-78
2023/02/16 04:55:27;;;;;;;21.20;10.47;;;;;;;-4.43;100.00;100086.63;5072038;28;20649;-78
2023/02/16 04:57:53;;;;;;;22.43;11.17;;;;;;;-4.42;100.00;100076.88;5071910;28;20048;-77
2023/02/16 05:00:20;;;;;;;22.73;11.03;;;;;;;-4.33;100.00;100087.94;5058085;28;20052;-78
2023/02/16 05:02:47;;;;;;;23.13;10.87;;;;;;;-4.36;100.00;100061.53;5071073;28;20157;-78
2023/02/16 05:05:14;;;;;;;20.13;10.97;;;;;;;-4.35;100.00;100059.72;5068344;28;20048;-78
2023/02/16 05:07:40;;;;;;;23.30;10.70;;;;;;;-4.45;100.00;100072.56;5065967;28;20052;-78
2023/02/16 05:10:08;;;;;;;23.40;11.33;;;;;;;-4.54;100.00;100067.66;5069430;28;20061;-78
2023/02/16 05:15:20;;;;;;;17.53;10.27;;;;;;;-4.25;100.00;100089.41;5057250;28;20056;-78
2023/02/16 05:17:47;;;;;;;21.47;10.50;;;;;;;-4.50;100.00;100079.84;5056394;28;20048;-78
2023/02/16 05:20:13;;;;;;;27.27;10.87;;;;;;;-4.49;100.00;100076.28;5066442;28;20131;-78
2023/02/16 05:22:40;;;;;;;27.00;12.90;;;;;;;-4.52;100.00;100085.22;5071456;28;20049;-78
2023/02/16 05:25:07;;;;;;;25.67;11.17;;;;;;;-4.41;100.00;100102.47;5069722;28;20052;-78
2023/02/16 05:27:34;;;;;;;30.63;13.47;;;;;;;-4.32;100.00;100104.72;5064516;28;20049;-78
2023/02/16 05:30:02;;;;;;;29.07;13.63;;;;;;;-4.34;100.00;100111.91;5068723;28;20131;-78
2023/02/16 05:32:28;;;;;;;23.80;12.90;;;;;;;-4.37;100.00;100098.78;5066711;28;20099;-77
2023/02/16 05:34:55;;;;;;;25.23;12.47;;;;;;;-4.47;100.00;100096.53;5052076;28;20387;-78
2023/02/16 05:37:21;;;;;;;27.33;12.57;;;;;;;-4.47;100.00;100098.28;5066828;28;20048;-79
2023/02/16 05:39:48;;;;;;;29.40;11.87;;;;;;;-4.42;100.00;100100.78;5052115;28;20386;-79
2023/02/16 05:42:14;;;;;;;24.30;11.70;;;;;;;-4.50;100.00;100111.69;5053203;28;20512;-79
2023/02/16 05:44:41;;;;;;;23.03;10.50;;;;;;;-4.40;100.00;100112.19;5070312;28;20051;-79
2023/02/16 05:47:10;;;;;;;28.50;12.33;;;;;;;-4.44;100.00;100108.81;5063307;28;20044;-79
2023/02/16 05:49:36;;;;;;;25.63;11.67;;;;;;;-4.59;100.00;100104.13;5063313;28;20597;-79
2023/02/16 05:52:03;;;;;;;22.93;11.20;;;;;;;-4.54;100.00;100107.47;5060713;28;20048;-79
2023/02/16 05:54:29;;;;;;;26.50;12.83;;;;;;;-4.63;100.00;100100.78;5061307;28;20435;-79
2023/02/16 05:56:58;;;;;;;24.43;12.20;;;;;;;-4.77;100.00;100098.72;5070034;28;20083;-79
2023/02/16 05:59:30;;;;;;;21.47;11.73;;;;;;;-4.47;100.00;100115.09;5059443;28;20067;-79
2023/02/16 06:01:57;;;;;;;22.80;9.90;;;;;;;-4.52;100.00;100125.03;5060834;28;20064;-79
2023/02/16 06:04:25;;;;;;;19.07;9.67;;;;;;;-4.66;100.00;100112.38;5067818;28;20083;-79
2023/02/16 06:06:52;;;;;;;19.47;9.60;;;;;;;-4.51;100.00;100134.75;5061246;28;20102;-79
2023/02/16 06:09:19;;;;;;;23.50;10.40;;;;;;;-4.65;100.00;100122.06;5068266;28;20078;-79
2023/02/16 06:11:46;;;;;;;20.90;10.77;;;;;;;-4.57;100.00;100129.69;5070391;28;20071;-78
2023/02/16 06:14:15;;;;;;;23.10;11.33;;;;;;;-4.65;100.00;100124.72;5060687;28;20432;-79
2023/02/16 06:16:44;;;;;;;25.05;11.98;;;;;;;-4.65;100.00;100139.78;5062246;28;20041;-79
2023/02/16 06:19:11;;;;;;;24.98;12.05;;;;;;;-4.76;100.00;100120.78;5066675;28;20052;-78
2023/02/16 06:21:40;;;;;;;19.73;11.50;;;;;;;-4.77;100.00;100127.00;5070523;28;20036;-79
2023/02/16 06:24:08;;;;;;;23.47;11.67;;;;;;;-4.67;100.00;100134.50;5071872;28;20571;-79
2023/02/16 06:26:35;;;;;;;22.70;11.00;;;;;;;-4.74;100.00;100134.84;5061409;28;20047;-79
2023/02/16 06:29:01;;;;;;;26.33;11.87;;;;;;;-4.68;100.00;100139.88;5064865;28;20546;-79
2023/02/16 06:31:32;;;;;;;22.27;10.67;;;;;;;-4.72;100.00;100149.78;5065064;28;20051;-79
2023/02/16 06:33:59;;;;;;;26.80;12.80;;;;;;;-4.60;100.00;100151.06;5066003;28;20132;-79
2023/02/16 06:36:25;;;;;;;27.13;11.33;;;;;;;-4.83;100.00;100133.47;5067701;28;20049;-80
2023/02/16 06:38:53;;;;;;;28.20;13.37;;;;;;;-4.65;100.00;100143.28;5055584;28;20056;-78
2023/02/16 06:41:30;;;;;;;27.47;13.40;;;;;;;-4.71;100.00;100124.09;5057319;28;20503;-79
2023/02/16 06:44:02;;;;;;;24.40;11.17;;;;;;;-4.75;100.00;100117.22;5062390;28;20106;-80
2023/02/16 06:46:29;;;;;;;25.13;12.03;;;;;;;-4.66;100.00;100146.84;5074766;28;20371;-79
2023/02/16 06:48:55;;;;;;;24.93;10.93;;;;;;;-4.78;100.00;100115.53;5071456;28;20051;-79
2023/02/16 06:51:22;;;;;;;21.33;11.37;;;;;;;-4.68;100.00;100116.00;5073077;28;20052;-79
2023/02/16 06:53:49;;;;;;;19.90;10.13;;;;;;;-4.77;100.00;100121.69;5071046;28;20048;-79
2023/02/16 06:56:17;;;;;;;20.30;10.10;;;;;;;-4.62;100.00;100131.69;5074216;28;20052;-79
2023/02/16 06:58:43;;;;;;;23.97;10.67;;;;;;;-4.82;100.00;100120.13;5055026;28;20053;-79
2023/02/16 07:01:10;;;;;;;20.97;10.03;;;;;;;-4.88;100.00;100144.22;5054888;28;20056;-80
2023/02/16 07:03:37;;;;;;;20.80;10.97;;;;;;;-4.85;100.00;100114.06;5069559;28;20052;-79
2023/02/16 07:06:04;;;;;;;21.47;11.10;;;;;;;-4.81;100.00;100137.75;5072443;28;20042;-79
2023/02/16 07:08:30;;;;;;;24.50;12.63;;;;;;;-4.70;100.00;100137.28;5070088;28;20152;-79
2023/02/16 07:10:57;;;;;;;27.37;12.10;;;;;;;-4.69;100.00;100160.25;5066771;28;20131;-79
2023/02/16 07:13:25;;;;;;;28.63;11.67;;;;;;;-4.70;100.00;100133.78;5065493;28;20052;-79
2023/02/16 07:15:54;;;;;;;28.90;11.97;;;;;;;-4.69;100.00;100141.69;5070819;28;20403;-80
2023/02/16 07:18:20;;;;;;;25.48;12.43;;;;;;;-4.62;100.00;100143.16;5073575;28;20044;-80
2023/02/16 07:20:47;;;;;;;21.37;11.57;;;;;;;-4.46;100.00;100163.75;5073589;28;20052;-79
2023/02/16 07:23:14;;;;;;;25.60;13.33;;;;;;;-4.59;100.00;100130.69;5071661;28;20106;-79
2023/02/16 07:25:40;;;;;;;30.30;13.33;;;;;;;-4.41;100.00;100137.88;5067540;28;20045;-80
2023/02/16 07:28:07;;;;;;;38.13;17.13;;;;;;;-4.48;100.00;100139.06;5071843;28;20056;-79
2023/02/16 07:30:35;;;;;;;32.77;13.27;;;;;;;-4.30;100.00;100164.81;5071940;28;20055;-80
2023/02/16 07:33:01;;;;;;;24.73;12.37;;;;;;;-4.39;100.00;100138.66;5071229;28;20074;-79
2023/02/16 07:35:28;;;;;;;29.63;14.10;;;;;;;-4.39;100.00;100122.72;5067481;28;20041;-79
2023/02/16 07:37:55;;;;;;;29.17;13.63;;;;;;;-4.27;100.00;100135.47;5069351;28;20121;-79
2023/02/16 07:40:21;;;;;;;27.10;14.07;;;;;;;-4.06;100.00;100151.41;5069264;28;20052;-79
2023/02/16 07:42:48;;;;;;;28.47;13.80;;;;;;;-4.03;100.00;100155.72;5071129;28;20044;-79
2023/02/16 07:45:14;;;;;;;27.77;13.23;;;;;;;-3.95;100.00;100153.56;5072590;28;20059;-79
2023/02/16 07:47:42;;;;;;;24.03;12.70;;;;;;;-3.92;100.00;100164.91;5072253;28;20049;-80
2023/02/16 07:50:09;;;;;;;27.23;13.10;;;;;;;-3.76;100.00;100173.06;5072385;28;20051;-80
2023/02/16 07:52:36;;;;;;;28.40;13.43;;;;;;;-3.84;100.00;100153.09;5069299;28;20045;-80
2023/02/16 07:55:03;;;;;;;24.83;12.57;;;;;;;-3.80;100.00;100154.69;5072255;28;20089;-80
2023/02/16 07:57:30;;;;;;;25.83;13.87;;;;;;;-3.62;100.00;100167.13;5068337;28;20135;-80
2023/02/16 07:59:56;;;;;;;26.17;12.50;;;;;;;-3.50;100.00;100164.84;5071706;28;20059;-80
2023/02/16 08:02:23;;;;;;;30.53;14.03;;;;;;;-3.38;100.00;100172.25;5068083;28;20054;-80
2023/02/16 08:04:52;;;;;;;29.77;14.97;;;;;;;-3.33;100.00;100162.25;5072027;28;20063;-80
2023/02/16 08:07:19;;;;;;;30.20;14.77;;;;;;;-3.10;100.00;100177.13;5072216;28;20056;-80
2023/02/16 08:09:45;;;;;;;30.03;15.23;;;;;;;-3.14;100.00;100145.44;5071911;28;20044;-80
2023/02/16 08:12:14;;;;;;;31.27;14.67;;;;;;;-2.97;100.00;100179.22;5070162;28;20049;-79
2023/02/16 08:14:40;;;;;;;26.15;12.90;;;;;;;-3.06;100.00;100157.41;5071982;28;20055;-80
2023/02/16 08:17:08;;;;;;;42.70;17.00;;;;;;;-2.94;100.00;100161.28;5069411;28;20045;-80
2023/02/16 08:19:35;;;;;;;38.50;16.43;;;;;;;-2.78;100.00;100171.19;5064129;28;20503;-79
2023/02/16 08:22:04;;;;;;;41.17;19.83;;;;;;;-2.75;100.00;100153.25;5071341;28;20084;-79
2023/02/16 08:24:32;;;;;;;35.73;16.37;;;;;;;-2.52;100.00;100164.56;5071890;28;20502;-80
2023/02/16 08:27:00;;;;;;;37.65;14.93;;;;;;;-2.46;100.00;100166.91;5071347;28;20411;-79
2023/02/16 08:29:26;;;;;;;34.35;15.90;;;;;;;-2.60;100.00;100150.78;5069518;28;20496;-79
2023/02/16 08:31:54;;;;;;;31.83;16.13;;;;;;;-2.51;100.00;100153.00;5071198;28;20048;-80
2023/02/16 08:34:21;;;;;;;28.48;14.55;;;;;;;-2.36;100.00;100157.53;5071041;28;20108;-80
2023/02/16 08:36:55;;;;;;;34.25;15.05;;;;;;;-2.37;100.00;100141.63;5067907;28;20377;-80
2023/02/16 08:39:25;;;;;;;36.65;16.00;;;;;;;-2.09;100.00;100172.16;5065649;28;20400;-80
2023/02/16 08:41:51;;;;;;;;;;;;;;;-2.02;100.00;100168.22;5071491;28;20055;-79
2023/02/16 08:44:19;;;;;;;46.70;20.48;;;;;;;-1.93;100.00;100154.44;5070320;28;19933;-80
2023/02/16 08:46:47;;;;;;;25.92;13.57;;;;;;;-1.88;100.00;100139.06;5071475;28;20048;-80
2023/02/16 08:49:16;;;;;;;36.83;16.08;;;;;;;-1.74;100.00;100138.31;5070181;28;20068;-80
2023/02/16 08:51:44;;;;;;;41.22;16.77;;;;;;;-1.48;100.00;100146.72;5066094;28;20588;-79
2023/02/16 08:54:15;;;;;;;33.22;16.50;;;;;;;-1.50;100.00;100132.59;5070524;28;20390;-80
2023/02/16 08:56:45;;;;;;;38.78;17.88;;;;;;;-1.21;100.00;100159.47;5069126;28;20415;-80
2023/02/16 08:59:12;;;;;;;33.83;16.23;;;;;;;-1.26;100.00;100127.72;5060777;28;20045;-80
2023/02/16 09:01:40;;;;;;;34.40;17.17;;;;;;;-1.01;100.00;100148.56;5066660;28;20044;-80
2023/02/16 09:04:07;;;;;;;33.22;16.45;;;;;;;-0.76;100.00;100145.31;5070446;28;20139;-80
2023/02/16 09:06:37;;;;;;;34.63;15.93;;;;;;;-0.64;100.00;100146.41;5069902;28;20075;-80
2023/02/16 09:09:04;;;;;;;32.70;17.42;;;;;;;-0.56;100.00;100140.63;5070760;28;20484;-80
2023/02/16 09:11:30;;;;;;;40.55;18.30;;;;;;;-0.33;100.00;100154.44;5070679;28;20056;-80
2023/02/16 09:13:59;;;;;;;37.03;17.80;;;;;;;-0.37;100.00;100125.22;5064679;28;20055;-80
2023/02/16 09:16:26;;;;;;;39.78;16.55;;;;;;;-0.02;100.00;100127.56;5070618;28;20047;-80
2023/02/16 09:18:53;;;;;;;40.35;15.57;;;;;;;0.16;100.00;100132.75;5068556;28;20120;-80
2023/02/16 09:21:24;;;;;;;26.05;14.13;;;;;;;0.32;100.00;100127.34;5070881;28;20045;-80
2023/02/16 09:23:52;;;;;;;33.72;15.13;;;;;;;0.38;100.00;100118.91;5070308;28;20064;-80
2023/02/16 09:26:20;;;;;;;35.92;14.50;;;;;;;0.73;100.00;100125.66;5070681;28;20119;-80
2023/02/16 09:28:48;;;;;;;30.77;14.05;;;;;;;0.92;100.00;100146.75;5063801;28;20420;-80
2023/02/16 09:31:22;;;;;;;27.50;13.63;;;;;;;0.85;100.00;100130.22;5070615;28;20046;-80
2023/02/16 09:33:49;;;;;;;32.78;13.23;;;;;;;0.98;100.00;100122.25;5069563;28;20510;-80
2023/02/16 09:36:16;;;;;;;28.17;14.00;;;;;;;1.12;100.00;100122.22;5070531;28;20494;-80
2023/02/16 09:38:42;;;;;;;26.80;13.80;;;;;;;1.35;100.00;100136.75;5060385;28;20457;-80
2023/02/16 09:41:21;;;;;;;26.90;12.93;;;;;;;1.61;100.00;100144.84;5070303;28;20047;-79
2023/02/16 09:43:51;;;;;;;22.33;12.40;;;;;;;1.93;100.00;100117.69;5069808;28;20427;-80
2023/02/16 09:46:22;;;;;;;31.98;13.35;;;;;;;2.31;100.00;100135.59;5063669;28;20044;-79
2023/02/16 09:48:50;;;;;;;33.88;15.02;;;;;;;2.50;100.00;100128.94;5068991;28;20051;-79
2023/02/16 09:51:19;;;;;;;63.15;23.83;;;;;;;2.59;100.00;100104.97;5070816;28;20411;-80
2023/02/16 09:53:54;;;;;;;40.55;18.95;;;;;;;2.85;100.00;100118.34;5069642;28;20198;-79
2023/02/16 09:56:27;;;;;;;37.72;17.33;;;;;;;3.01;100.00;100107.31;5070569;28;20048;-80
2023/02/16 09:58:58;;;;;;;26.63;13.50;;;;;;;3.26;100.00;100129.69;5061468;28;20048;-80
2023/02/16 10:01:32;;;;;;;31.25;13.27;;;;;;;3.31;100.00;100116.75;5070860;28;20136;-80
2023/02/16 10:04:16;;;;;;;43.80;17.08;;;;;;;3.47;100.00;100109.25;5061028;28;20485;-79
2023/02/16 10:06:54;;;;;;;55.78;23.48;;;;;;;3.84;100.00;100136.03;5069872;28;20048;-80
2023/02/16 10:09:22;;;;;;;27.38;13.57;;;;;;;4.05;100.00;100138.91;5068786;28;20048;-80
2023/02/16 10:11:53;;;;;;;29.15;13.23;;;;;;;4.19;100.00;100121.66;5070464;28;20098;-80
2023/02/16 10:14:29;;;;;;;28.50;13.00;;;;;;;4.15;100.00;100106.72;5069813;28;20051;-80
2023/02/16 10:17:06;;;;;;;24.67;11.65;;;;;;;4.33;100.00;100130.50;5069293;28;20052;-80
2023/02/16 10:19:39;;;;;;;32.40;12.68;;;;;;;4.30;100.00;100098.44;5069026;28;20518;-80
2023/02/16 10:22:11;;;;;;;26.98;12.30;;;;;;;4.57;100.00;100116.91;5059720;28;20052;-80
2023/02/16 10:24:44;;;;;;;24.90;11.38;;;;;;;4.74;100.00;100115.53;5070254;28;20056;-80
2023/02/16 10:27:15;;;;;;;25.23;11.85;;;;;;;4.75;100.00;100103.78;5066677;28;20052;-80
2023/02/16 10:29:42;;;;;;;24.23;11.40;;;;;;;4.87;100.00;100101.94;5067011;28;20145;-80
2023/02/16 10:32:19;;;;;;;40.20;15.38;;;;;;;5.07;100.00;100084.13;5069233;28;20052;-80
2023/02/16 10:34:50;;;;;;;25.92;12.27;;;;;;;5.23;100.00;100106.13;5069965;28;20106;-80
2023/02/16 10:37:37;;;;;;;27.65;12.25;;;;;;;5.17;100.00;100093.16;5070245;28;20044;-80
2023/02/16 10:40:22;;;;;;;49.30;15.82;;;;;;;5.53;100.00;100118.03;5066331;28;20048;-80
2023/02/16 10:42:55;;;;;;;32.80;13.10;;;;;;;5.68;100.00;100100.56;5068514;28;20056;-80
2023/02/16 10:45:27;;;;;;;25.90;11.95;;;;;;;5.79;100.00;100101.47;5063258;28;20432;-81
2023/02/16 10:47:55;;;;;;;35.28;9.57;;;;;;;5.83;100.00;100114.59;5067366;28;20044;-80
2023/02/16 10:50:26;;;;;;;25.92;9.45;;;;;;;5.88;100.00;100107.94;5069917;28;20067;-80
2023/02/16 10:52:58;;;;;;;22.67;10.95;;;;;;;5.96;100.00;100098.19;5069640;28;20052;-80
2023/02/16 10:55:24;;;;;;;20.17;9.80;;;;;;;6.13;97.23;100098.63;5067523;28;20044;-80
2023/02/16 10:57:54;;;;;;;21.35;8.98;;;;;;;6.13;95.37;100064.38;5073044;28;20044;-79
2023/02/16 11:00:23;;;;;;;;;;;;;;;6.41;97.80;100088.94;5073923;28;20102;-80
2023/02/16 11:02:51;;;;;;;23.45;11.63;;;;;;;6.49;97.03;100088.28;5072668;28;19921;-80
2023/02/16 11:05:32;;;;;;;18.90;8.68;;;;;;;6.55;95.53;100079.63;5072469;28;20377;-80
2023/02/16 11:08:01;;;;;;;21.50;10.40;;;;;;;6.57;93.07;100057.88;5067981;28;20053;-79
2023/02/16 11:10:37;;;;;;;19.02;10.02;;;;;;;6.70;90.38;100063.88;5067506;28;20074;-80
2023/02/16 11:13:04;;;;;;;22.52;9.38;;;;;;;6.88;86.51;100064.91;5071529;28;20048;-80
2023/02/16 11:15:31;;;;;;;21.15;9.48;;;;;;;7.16;89.03;100077.78;5071086;28;20053;-80
2023/02/16 11:18:03;;;;;;;16.50;8.27;;;;;;;7.09;89.65;100064.81;5072713;28;20055;-80
2023/02/16 11:20:34;;;;;;;17.13;8.30;;;;;;;7.37;83.69;100083.91;5071578;28;20098;-80
2023/02/16 11:23:13;;;;;;;32.67;15.00;;;;;;;7.36;85.36;100073.22;5062382;28;20056;-80
2023/02/16 11:25:40;;;;;;;24.63;10.00;;;;;;;7.36;83.76;100060.56;5064943;28;20474;-80
2023/02/16 11:28:08;;;;;;;15.95;7.55;;;;;;;7.45;84.40;100064.25;5072305;28;20064;-80
2023/02/16 11:30:37;;;;;;;18.80;8.88;;;;;;;7.47;83.36;100061.41;5072642;28;20385;-80
2023/02/16 11:33:18;;;;;;;16.55;8.23;;;;;;;7.60;80.07;100046.59;5071904;28;20051;-80
2023/02/16 11:35:47;;;;;;;17.33;7.72;;;;;;;7.62;80.20;100047.28;5071223;28;20053;-80
2023/02/16 11:38:31;;;;;;;13.18;7.40;;;;;;;7.73;82.61;100054.41;5053025;28;20051;-80
2023/02/16 11:40:59;;;;;;;18.83;6.88;;;;;;;7.78;76.76;100040.44;5070206;28;20052;-80
2023/02/16 11:43:30;;;;;;;13.52;7.00;;;;;;;7.90;73.90;100038.41;5072071;28;20415;-80
2023/02/16 11:45:59;;;;;;;15.07;6.90;;;;;;;8.27;76.09;100046.56;5071398;28;20046;-80
2023/02/16 11:48:27;;;;;;;13.25;7.35;;;;;;;8.29;73.32;100019.31;5072302;28;20048;-80
2023/02/16 11:51:01;;;;;;;16.52;6.95;;;;;;;8.63;72.37;100035.88;5072384;28;20056;-80
2023/02/16 11:53:31;;;;;;;12.35;5.97;;;;;;;8.52;69.79;100016.25;5071846;28;20052;-80